»·PEaware :: AAL554 KSLC-KPHX

AAL554 :: KSLC-KPHX

FLIGHT INFORMATION

Flight Status: Arrived
Operator:
American Airlines
More flights by this operator :: More flights under this callsign
Pilot: Shawn G. (7208)
Aircraft: AIRBUS A320
(A320)
More flights by this aircraft type
Origin: KSLC Salt Lake City Intl
United States
Destination: KPHX Phoenix Sky Harbor Intl
United States
More flights between these airports :: More routes between these airports
Route: WEVIC6 BCE CORKR TENTS BRUSR1
File this flight plan on PilotEdge
Remarks:
Altitude:
(Current/Filed)
33,000ft
Speed:
(Current/Filed)
444kts
Departed: 29-Sep-17 05:54 PM
Arrived: 29-Sep-17 07:10 PM
Distance/Time
Traveled:
441nm/1:16
Distance/Time
To Go:
Arrived

Flight Plot

Page will automatically refresh every two minutes.

Flight plan parsing failed; only flown route is shown


Map Options




Map Legend


Flown Route
Filed Route
Departure Airport
Arrival Airport
Navaid (VOR, NDB)
Fix

Horizontal Profiles

Position Reports

Time Latitude Longitude Heading Altitude Ground
Speed
29-Sep-17 17:31 40.784837 -111.978443 9 4235ft 0kts
29-Sep-17 17:32 40.784837 -111.978443 9 4235ft 0kts
29-Sep-17 17:33 40.784837 -111.978443 9 4235ft 0kts
29-Sep-17 17:34 40.784837 -111.978443 9 4235ft 0kts
29-Sep-17 17:35 40.784837 -111.978443 9 4235ft 0kts
29-Sep-17 17:36 40.784837 -111.978443 9 4235ft 0kts
29-Sep-17 17:37 40.784837 -111.978443 9 4235ft 0kts
29-Sep-17 17:38 40.784837 -111.978443 9 4235ft 0kts
29-Sep-17 17:39 40.784837 -111.978443 9 4235ft 0kts
29-Sep-17 17:40 40.784837 -111.978443 9 4235ft 0kts
29-Sep-17 17:41 40.784837 -111.978443 9 4235ft 0kts
29-Sep-17 17:42 40.784837 -111.978443 9 4235ft 0kts
29-Sep-17 17:43 40.784837 -111.978443 9 4235ft 0kts
29-Sep-17 17:44 40.784431 -111.978445 344 4235ft 2kts
29-Sep-17 17:45 40.784003 -111.978692 81 4235ft 2kts
29-Sep-17 17:46 40.783996 -111.978923 84 4235ft 0kts
29-Sep-17 17:47 40.783996 -111.978923 84 4235ft 0kts
29-Sep-17 17:48 40.784012 -111.978698 85 4235ft 0kts
29-Sep-17 17:49 40.784048 -111.977937 85 4235ft 0kts
29-Sep-17 17:50 40.784117 -111.977065 82 4235ft 7kts
29-Sep-17 17:51 40.786114 -111.976632 354 4235ft 12kts
29-Sep-17 17:52 40.790701 -111.977158 354 4235ft 20kts
29-Sep-17 17:53 40.795149 -111.977657 356 4235ft 15kts
29-Sep-17 17:54 40.801441 -111.978408 354 4235ft 17kts
29-Sep-17 17:55 40.805562 -111.978458 353 4235ft 16kts
29-Sep-17 17:56 40.807075 -111.978551 32 4235ft 0kts
29-Sep-17 17:57 40.807075 -111.978551 32 4235ft 0kts
29-Sep-17 17:58 40.805550 -111.976687 175 4235ft 49kts
29-Sep-17 17:59 40.764893 -111.977655 179 5667ft 203kts
29-Sep-17 18:00 40.706437 -111.971174 176 7965ft 253kts
29-Sep-17 18:01 40.640138 -111.965610 177 10558ft 296kts
29-Sep-17 18:02 40.558083 -111.959237 179 14007ft 295kts
29-Sep-17 18:03 40.459283 -111.951955 179 14150ft 321kts
29-Sep-17 18:04 40.371593 -111.945868 180 17763ft 328kts
29-Sep-17 18:05 40.294846 -111.940561 180 20307ft 342kts
29-Sep-17 18:06 40.200485 -111.950130 190 23065ft 353kts
29-Sep-17 18:07 40.099355 -111.965150 190 24453ft 402kts
29-Sep-17 18:08 39.958737 -111.985617 189 25722ft 456kts
29-Sep-17 18:09 39.854210 -112.000816 190 27555ft 463kts
29-Sep-17 18:10 39.729108 -112.018962 190 30098ft 455kts
29-Sep-17 18:11 39.605570 -112.036833 191 32256ft 448kts
29-Sep-17 18:12 39.484584 -112.054468 191 33115ft 447kts
29-Sep-17 18:13 39.362648 -112.071850 191 33106ft 445kts
29-Sep-17 18:14 39.240690 -112.089134 191 33103ft 445kts
29-Sep-17 18:15 39.119487 -112.106255 191 33102ft 444kts
29-Sep-17 18:16 38.998487 -112.123291 191 33104ft 444kts
29-Sep-17 18:17 38.877520 -112.140255 191 33103ft 444kts
29-Sep-17 18:18 38.755750 -112.157246 191 33102ft 443kts
29-Sep-17 18:19 38.634682 -112.174116 191 33103ft 443kts
29-Sep-17 18:20 38.513807 -112.190903 191 33077ft 443kts
29-Sep-17 18:21 38.392626 -112.207673 191 33075ft 442kts
29-Sep-17 18:22 38.271552 -112.224375 191 33075ft 442kts
29-Sep-17 18:23 38.150165 -112.241057 191 33212ft 441kts
29-Sep-17 18:24 38.029419 -112.257605 191 33236ft 440kts
29-Sep-17 18:25 37.908264 -112.274153 191 33238ft 441kts
29-Sep-17 18:26 37.787526 -112.290638 190 33241ft 459kts
29-Sep-17 18:27 37.661067 -112.305861 186 33239ft 460kts
29-Sep-17 18:28 37.534224 -112.313383 186 33238ft 460kts
29-Sep-17 18:29 37.407429 -112.321127 186 33238ft 461kts
29-Sep-17 18:30 37.281008 -112.328818 186 33238ft 461kts
29-Sep-17 18:31 37.153467 -112.336550 186 33239ft 461kts
29-Sep-17 18:32 37.026458 -112.344225 186 33238ft 461kts
29-Sep-17 18:33 36.899959 -112.351841 186 33052ft 460kts
29-Sep-17 18:34 36.773252 -112.359425 186 33047ft 462kts
29-Sep-17 18:35 36.645686 -112.367054 186 33048ft 462kts
29-Sep-17 18:36 36.532854 -112.373782 186 33185ft 463kts
29-Sep-17 18:37 36.405270 -112.381369 186 33186ft 462kts
29-Sep-17 18:38 36.277996 -112.388910 186 33184ft 462kts
29-Sep-17 18:39 36.150834 -112.396420 186 33184ft 462kts
29-Sep-17 18:40 36.024941 -112.405462 190 33178ft 443kts
29-Sep-17 18:41 35.901629 -112.416337 189 33182ft 450kts
29-Sep-17 18:42 35.779954 -112.426922 189 33184ft 449kts
29-Sep-17 18:43 35.656518 -112.437658 189 33184ft 449kts
29-Sep-17 18:44 35.532674 -112.448397 189 33184ft 450kts
29-Sep-17 18:45 35.407292 -112.435024 176 33179ft 465kts
29-Sep-17 18:46 35.281099 -112.410461 175 31172ft 466kts
29-Sep-17 18:47 35.155622 -112.384982 174 28961ft 456kts
29-Sep-17 18:48 35.028958 -112.357530 173 27280ft 459kts
29-Sep-17 18:49 34.905357 -112.330800 173 25689ft 451kts
29-Sep-17 18:50 34.794951 -112.306661 173 24354ft 442kts
29-Sep-17 18:51 34.678399 -112.281021 173 22958ft 412kts
29-Sep-17 18:52 34.570617 -112.257389 173 21667ft 380kts
29-Sep-17 18:53 34.468481 -112.235086 172 20480ft 375kts
29-Sep-17 18:54 34.368063 -112.209916 170 19286ft 368kts
29-Sep-17 18:55 34.270027 -112.184523 170 18106ft 351kts
29-Sep-17 18:56 34.178585 -112.160899 170 17056ft 327kts
29-Sep-17 18:57 34.090031 -112.137911 167 15840ft 327kts
29-Sep-17 18:58 34.003844 -112.103498 163 14004ft 329kts
29-Sep-17 18:59 33.917476 -112.068447 163 12106ft 328kts
29-Sep-17 19:00 33.835998 -112.035457 162 10316ft 312kts
29-Sep-17 19:01 33.757023 -112.003460 162 9136ft 294kts
29-Sep-17 19:02 33.683636 -111.973787 162 8772ft 269kts
29-Sep-17 19:03 33.612923 -111.945245 162 7922ft 269kts
29-Sep-17 19:04 33.544400 -111.917568 162 7138ft 250kts
29-Sep-17 19:05 33.523351 -111.852932 70 7026ft 248kts
29-Sep-17 19:06 33.528218 -111.774114 88 5827ft 248kts
29-Sep-17 19:07 33.487307 -111.731447 171 5026ft 220kts
29-Sep-17 19:08 33.446590 -111.772211 239 4163ft 193kts
29-Sep-17 19:09 33.440640 -111.831342 269 3785ft 170kts
29-Sep-17 19:10 33.440689 -111.879287 270 3011ft 135kts
29-Sep-17 19:11 33.440761 -111.923671 270 2294ft 133kts
29-Sep-17 19:12 33.440817 -111.967696 270 1582ft 132kts
29-Sep-17 19:13 33.440803 -112.008009 271 1142ft 69kts
29-Sep-17 19:14 33.439953 -112.011012 200 1142ft 0kts
29-Sep-17 19:15 33.439135 -112.011082 126 1142ft 9kts
29-Sep-17 19:16 33.438996 -112.006096 90 1142ft 24kts
29-Sep-17 19:17 33.438972 -112.000675 100 1142ft 11kts
29-Sep-17 19:18 33.437313 -112.000772 180 1142ft 4kts
29-Sep-17 19:19 33.436836 -111.999825 89 1142ft 2kts

Navigation Log

Ident Type
Flight plan parsing failed, navigation log unavailable